Time;durP1;ratioP1;P1;durP2;ratioP2;P2;SDS_P1;SDS_P2;PMS_P1;PMS_P2;Temp;Humidity;BMP_temperature;BMP_pressure;BME280_temperature;BME280_humidity;BME280_pressure;Samples;Min_cycle;Max_cycle;Signal;HPM_P1;HPM_P2
2022/11/20 00:01:34;;;;;;;;;;;;;;;3.09;69.62;99234.72;5093862;28;19936;-72
2022/11/20 00:04:02;;;;;;;;;;;;;;;3.11;69.42;99233.09;5093755;28;19924;-72
2022/11/20 00:06:31;;;;;;;;;;;;;;;3.15;68.78;99245.78;5092854;28;20358;-72
2022/11/20 00:09:01;;;;;;;;;;;;;;;3.20;69.25;99248.41;5093826;28;19928;-72
2022/11/20 00:11:31;;;;;;;;;;;;;;;3.24;68.62;99260.25;5093838;28;19924;-72
2022/11/20 00:14:01;;;;;;;;;;;;;;;3.27;68.63;99250.22;5093737;28;19924;-72
2022/11/20 00:16:32;;;;;;;;;;;;;;;3.25;68.81;99252.72;5093717;28;19973;-72
2022/11/20 00:19:00;;;;;;;;;;;;;;;3.26;68.90;99253.59;5093712;28;20380;-72
2022/11/20 00:21:29;;;;;;;;;;;;;;;3.29;68.67;99251.09;5093688;28;19931;-72
2022/11/20 00:23:59;;;;;;;;;;;;;;;3.32;68.97;99253.69;5093479;28;20347;-73
2022/11/20 00:26:28;;;;;;;;;;;;;;;3.32;69.52;99249.50;5094233;28;20344;-73
2022/11/20 00:28:59;;;;;;;;;;;;;;;3.33;70.14;99245.31;5093632;28;19927;-73
2022/11/20 00:31:28;;;;;;;;;;;;;;;3.35;70.00;99243.69;5093987;28;19968;-72
2022/11/20 00:33:56;;;;;;;;;;;;;;;3.36;69.47;99246.22;5093521;28;19928;-72
2022/11/20 00:36:25;;;;;;;;;;;;;;;3.37;69.75;99247.09;5093481;28;19998;-72
2022/11/20 00:38:55;;;;;;;;;;;;;;;3.37;69.94;99244.56;5093334;28;19928;-72
2022/11/20 00:41:23;;;;;;;;;;;;;;;3.37;70.25;99245.41;5093839;28;19939;-72
2022/11/20 00:43:53;;;;;;;;;;;;;;;3.41;69.97;99243.78;5093362;28;19924;-72
2022/11/20 00:46:24;;;;;;;;;;;;;;;3.42;70.42;99224.47;5094098;28;20255;-72
2022/11/20 00:48:53;;;;;;;;;;;;;;;3.38;70.43;99228.63;5095159;28;19924;-72
2022/11/20 00:51:24;;;;;;;;;;;;;;;3.34;70.09;99231.88;5097424;28;19958;-72
2022/11/20 00:53:55;;;;;;;;;;;;;;;3.30;70.24;99236.03;5097393;28;19928;-72
2022/11/20 00:56:23;;;;;;;;;;;;;;;3.25;70.09;99240.13;5097295;28;20269;-72
2022/11/20 00:58:52;;;;;;;;;;;;;;;3.28;70.19;99247.75;5096976;28;19924;-72
2022/11/20 01:01:21;;;;;;;;;;;;;;;3.32;70.07;99243.63;5096940;28;19971;-72
2022/11/20 01:03:52;;;;;;;;;;;;;;;3.35;70.46;99253.78;5097143;28;20331;-72
2022/11/20 01:06:22;;;;;;;;;;;;;;;3.38;70.45;99253.84;5096808;28;19924;-73
2022/11/20 01:08:51;;;;;;;;;;;;;;;3.42;70.51;99263.16;5096764;28;19962;-72
2022/11/20 01:11:20;;;;;;;;;;;;;;;3.43;70.52;99261.50;5096988;28;20305;-73
2022/11/20 01:13:50;;;;;;;;;;;;;;;3.44;70.36;99264.03;5096974;28;19924;-72
2022/11/20 01:16:19;;;;;;;;;;;;;;;3.44;70.77;99259.00;5096500;28;19932;-72
2022/11/20 01:18:49;;;;;;;;;;;;;;;3.48;70.50;99265.78;5096563;28;19931;-73
2022/11/20 01:21:20;;;;;;;;;;;;;;;3.47;70.45;99269.16;5096529;28;19928;-73
2022/11/20 01:23:49;;;;;;;;;;;;;;;3.45;70.17;99272.47;5096510;28;19928;-73
2022/11/20 01:26:19;;;;;;;;;;;;;;;3.42;70.75;99270.72;5096365;28;19925;-72
2022/11/20 01:28:48;;;;;;;;;;;;;;;3.43;71.04;99277.50;5096754;28;19978;-73
2022/11/20 01:31:17;;;;;;;;;;;;;;;3.46;70.68;99272.50;5096609;28;20296;-73
2022/11/20 01:33:48;;;;;;;;;;;;;;;3.47;70.48;99283.44;5096711;28;20333;-73
2022/11/20 01:36:16;;;;;;;;;;;;;;;3.43;70.63;99276.63;5096072;28;19969;-73
2022/11/20 01:38:46;;;;;;;;;;;;;;;3.32;70.21;99278.91;5096039;28;20328;-73
2022/11/20 01:43:20;;;;;;;;;;;;;;;3.29;70.40;99288.94;5096187;28;20015;-73
2022/11/20 01:44:04;;;;;;;;;;;;;;;3.34;70.34;99285.69;5096491;28;19928;-73
2022/11/20 01:46:33;;;;;;;;;;;;;;;3.37;70.88;99298.38;5095977;28;19924;-72
2022/11/20 01:49:03;;;;;;;;;;;;;;;3.42;70.72;99295.09;5096294;28;19925;-73
2022/11/20 01:51:34;;;;;;;;;;;;;;;3.44;71.25;99293.44;5096320;28;19986;-73
2022/11/20 01:54:06;;;;;;;;;;;;;;;3.39;70.78;99285.78;5095946;28;19973;-72
2022/11/20 01:56:37;;;;;;;;;;;;;;;3.32;70.98;99283.97;5095747;28;19970;-73
2022/11/20 01:59:08;;;;;;;;;;;;;;;3.25;71.01;99287.16;5095938;28;20369;-72
2022/11/20 02:01:38;;;;;;;;;;;;;;;3.23;72.08;99283.75;5096147;28;19924;-72
2022/11/20 02:04:09;;;;;;;;;;;;;;;3.18;71.99;99292.91;5095654;28;19928;-72
2022/11/20 02:06:41;;;;;;;;;;;;;;;3.16;72.19;99297.06;5095586;28;19928;-73
2022/11/20 02:09:12;;;;;;;;;;;;;;;3.13;72.47;99302.03;5095911;28;19947;-73
2022/11/20 02:11:41;;;;;;;;;;;;;;;3.14;72.62;99304.56;5095876;28;20400;-73
2022/11/20 02:14:09;;;;;;;;;;;;;;;3.06;72.38;99295.16;5095507;28;19945;-73
2022/11/20 02:16:40;;;;;;;;;;;;;;;3.03;72.81;99290.03;5095383;28;19947;-73
2022/11/20 02:19:14;;;;;;;;;;;;;;;3.05;72.62;99283.34;5095387;28;19924;-73
2022/11/20 02:21:48;;;;;;;;;;;;;;;3.05;73.09;99281.69;5095746;28;20006;-73
2022/11/20 02:24:19;;;;;;;;;;;;;;;3.04;73.21;99271.56;5077003;28;19924;-73
2022/11/20 02:26:51;;;;;;;;;;;;;;;3.01;72.84;99262.28;5095611;28;20318;-73
2022/11/20 02:29:24;;;;;;;;;;;;;;;2.97;73.62;99259.66;5095220;28;19928;-73
2022/11/20 02:31:55;;;;;;;;;;;;;;;2.99;73.66;99268.97;5094033;28;20290;-73
2022/11/20 02:34:23;;;;;;;;;;;;;;;2.98;73.55;99263.88;5095457;28;20274;-73
2022/11/20 02:36:53;;;;;;;;;;;;;;;2.98;73.55;99256.31;5093649;28;19924;-73
2022/11/20 02:39:24;;;;;;;;;;;;;;;2.99;73.38;99255.50;5094220;28;19973;-73
2022/11/20 02:41:53;;;;;;;;;;;;;;;3.00;73.25;99250.47;5095018;28;19924;-72
2022/11/20 02:44:22;;;;;;;;;;;;;;;3.01;72.83;99241.25;5094915;28;19924;-73
2022/11/20 02:46:51;;;;;;;;;;;;;;;3.02;73.15;99242.97;5094842;28;19931;-72
2022/11/20 02:49:19;;;;;;;;;;;;;;;2.98;73.13;99248.75;5094758;28;20018;-72
2022/11/20 02:51:48;;;;;;;;;;;;;;;3.00;73.64;99268.13;5095118;28;19992;-73
2022/11/20 02:54:17;;;;;;;;;;;;;;;3.03;73.16;99270.72;5094580;28;20271;-73
2022/11/20 02:56:46;;;;;;;;;;;;;;;3.06;73.09;99264.91;5060005;28;20412;-72
2022/11/20 02:59:15;;;;;;;;;;;;;;;3.10;73.61;99254.91;5094664;28;20388;-72
2022/11/20 03:01:43;;;;;;;;;;;;;;;3.13;73.69;99247.41;5094627;28;20011;-72
2022/11/20 03:04:12;;;;;;;;;;;;;;;3.16;72.88;99251.69;5094888;28;20374;-72
2022/11/20 03:06:41;;;;;;;;;;;;;;;3.18;73.25;99250.03;5093395;28;20393;-72
2022/11/20 03:09:09;;;;;;;;;;;;;;;3.21;73.39;99250.13;5094515;28;19932;-72
2022/11/20 03:11:37;;;;;;;;;;;;;;;3.17;73.24;99253.38;5094208;28;20354;-72
2022/11/20 03:14:07;;;;;;;;;;;;;;;3.19;72.79;99261.84;5094585;28;19924;-72
2022/11/20 03:16:36;;;;;;;;;;;;;;;3.23;72.89;99259.41;5094323;28;19931;-72
2022/11/20 03:19:04;;;;;;;;;;;;;;;3.25;73.12;99259.44;5094188;28;20435;-72
2022/11/20 03:21:34;;;;;;;;;;;;;;;3.27;72.62;99258.66;5094333;28;20404;-72
2022/11/20 03:24:03;;;;;;;;;;;;;;;3.29;72.58;99271.28;5094542;28;20336;-73
2022/11/20 03:26:31;;;;;;;;;;;;;;;3.30;73.10;99275.50;5094260;28;19924;-72
2022/11/20 03:29:00;;;;;;;;;;;;;;;3.29;73.18;99271.28;5094228;28;20320;-72
2022/11/20 03:31:31;;;;;;;;;;;;;;;3.29;73.44;99263.72;5094117;28;19932;-73
2022/11/20 03:34:00;;;;;;;;;;;;;;;3.30;73.12;99265.44;5094252;28;19931;-72
2022/11/20 03:36:28;;;;;;;;;;;;;;;3.30;72.52;99267.94;5094002;28;20011;-72
2022/11/20 03:38:58;;;;;;;;;;;;;;;3.30;72.58;99250.28;5093871;28;19986;-72
2022/11/20 03:41:28;;;;;;;;;;;;;;;3.26;72.77;99243.50;5094020;28;20449;-73
2022/11/20 03:43:57;;;;;;;;;;;;;;;3.23;72.93;99245.94;5094027;28;19931;-72
2022/11/20 03:46:26;;;;;;;;;;;;;;;3.22;72.55;99250.13;5092872;28;19924;-72
2022/11/20 03:48:56;;;;;;;;;;;;;;;3.24;73.09;99247.63;5094348;28;19924;-72
2022/11/20 03:51:26;;;;;;;;;;;;;;;3.24;72.43;99245.09;5093981;28;19924;-72
2022/11/20 03:53:55;;;;;;;;;;;;;;;3.27;72.96;99247.72;5093976;28;19924;-72
2022/11/20 03:56:25;;;;;;;;;;;;;;;3.30;72.46;99245.25;5094192;28;19924;-72
2022/11/20 03:58:54;;;;;;;;;;;;;;;3.29;72.37;99233.44;5094008;28;19947;-73
2022/11/20 04:01:24;;;;;;;;;;;;;;;3.25;73.11;99241.78;5094115;28;19924;-73
2022/11/20 04:03:53;;;;;;;;;;;;;;;3.20;73.02;99239.16;5093902;28;19924;-73
2022/11/20 04:06:25;;;;;;;;;;;;;;;3.18;73.14;99234.91;5094140;28;20286;-72
2022/11/20 04:08:55;;;;;;;;;;;;;;;3.16;73.38;99234.03;5093898;28;19924;-73
2022/11/20 04:11:24;;;;;;;;;;;;;;;3.20;73.53;99233.28;5093758;28;19931;-72
2022/11/20 04:13:54;;;;;;;;;;;;;;;3.19;73.64;99231.59;5093793;28;19924;-72
2022/11/20 04:16:23;;;;;;;;;;;;;;;3.18;73.26;99229.88;5093074;28;19924;-72
2022/11/20 04:18:55;;;;;;;;;;;;;;;3.19;73.54;99237.44;5093959;28;20296;-72
2022/11/20 04:21:26;;;;;;;;;;;;;;;3.17;73.53;99228.16;5093716;28;19924;-72
2022/11/20 04:23:54;;;;;;;;;;;;;;;3.18;74.13;99224.81;5097237;28;19928;-72
2022/11/20 04:26:24;;;;;;;;;;;;;;;3.17;74.19;99218.06;5097614;28;19992;-72
2022/11/20 04:28:52;;;;;;;;;;;;;;;3.15;74.04;99215.53;5097552;28;19924;-72
2022/11/20 04:31:22;;;;;;;;;;;;;;;3.18;73.63;99222.31;5097410;28;19924;-72
2022/11/20 04:33:51;;;;;;;;;;;;;;;3.14;73.99;99208.78;5097420;28;19924;-73
2022/11/20 04:36:20;;;;;;;;;;;;;;;3.13;74.00;99196.16;5097416;28;19928;-72
2022/11/20 04:38:54;;;;;;;;;;;;;;;3.03;74.04;99194.25;5097168;28;20282;-72
2022/11/20 04:41:25;;;;;;;;;;;;;;;2.98;74.42;99190.78;5063507;28;19969;-72
2022/11/20 04:43:58;;;;;;;;;;;;;;;3.04;74.70;99211.94;5097221;28;19931;-73
2022/11/20 04:46:28;;;;;;;;;;;;;;;3.07;74.40;99185.97;5097231;28;19924;-73
2022/11/20 04:48:57;;;;;;;;;;;;;;;3.05;73.83;99175.81;5097481;28;20362;-72
2022/11/20 04:51:25;;;;;;;;;;;;;;;3.05;74.74;99180.00;5095837;28;20378;-72
2022/11/20 04:53:57;;;;;;;;;;;;;;;3.04;74.27;99178.31;5097296;28;20282;-73
2022/11/20 04:56:26;;;;;;;;;;;;;;;3.04;74.53;99175.81;5096422;28;19969;-72
2022/11/20 04:58:54;;;;;;;;;;;;;;;3.07;74.29;99175.88;5096898;28;19931;-72
2022/11/20 05:01:23;;;;;;;;;;;;;;;3.07;74.02;99163.28;5096933;28;19924;-73
2022/11/20 05:03:53;;;;;;;;;;;;;;;3.07;73.98;99153.19;5097159;28;19931;-72
2022/11/20 05:06:22;;;;;;;;;;;;;;;3.01;74.09;99155.56;5096853;28;19924;-73
2022/11/20 05:08:51;;;;;;;;;;;;;;;2.96;74.52;99164.69;5096889;28;20018;-72
2022/11/20 05:11:21;;;;;;;;;;;;;;;2.98;74.83;99165.56;5097058;28;19928;-72
2022/11/20 05:13:51;;;;;;;;;;;;;;;3.01;74.76;99176.59;5095859;28;19947;-73
2022/11/20 05:16:21;;;;;;;;;;;;;;;3.02;74.57;99169.88;5096941;28;20460;-73
2022/11/20 05:18:50;;;;;;;;;;;;;;;2.97;74.99;99161.38;5096692;28;19936;-73
2022/11/20 05:21:18;;;;;;;;;;;;;;;2.97;74.83;99154.66;5095356;28;19924;-73
2022/11/20 05:23:47;;;;;;;;;;;;;;;2.87;74.45;99151.91;5096522;28;19931;-72
2022/11/20 05:26:16;;;;;;;;;;;;;;;2.85;75.36;99143.47;5096460;28;19931;-72
2022/11/20 05:28:46;;;;;;;;;;;;;;;2.85;75.57;99143.47;5096401;28;19925;-72
2022/11/20 05:31:17;;;;;;;;;;;;;;;2.86;75.12;99140.13;5095266;28;20011;-72
2022/11/20 05:33:53;;;;;;;;;;;;;;;2.83;75.34;99130.00;5095716;28;19924;-72
2022/11/20 05:36:22;;;;;;;;;;;;;;;2.80;75.34;99134.97;5095323;28;20255;-72
2022/11/20 05:38:50;;;;;;;;;;;;;;;2.84;75.90;99136.72;5095911;28;19970;-72
2022/11/20 05:41:22;;;;;;;;;;;;;;;2.89;75.80;99145.22;5096260;28;19973;-72
2022/11/20 05:43:52;;;;;;;;;;;;;;;2.87;76.23;99141.84;5096050;28;19924;-73
2022/11/20 05:46:21;;;;;;;;;;;;;;;2.86;75.64;99155.22;5096095;28;19973;-72
2022/11/20 05:48:57;;;;;;;;;;;;;;;2.85;76.50;99151.03;5096063;28;19955;-73
2022/11/20 05:51:26;;;;;;;;;;;;;;;2.81;76.41;99161.88;5095098;28;19924;-73
2022/11/20 05:53:57;;;;;;;;;;;;;;;2.85;77.25;99159.44;5096259;28;19993;-73
2022/11/20 05:56:25;;;;;;;;;;;;;;;2.85;77.20;99161.97;5095844;28;19924;-73
2022/11/20 05:58:55;;;;;;;;;;;;;;;2.85;76.81;99149.38;5095777;28;20031;-73
2022/11/20 06:01:25;;;;;;;;;;;;;;;2.86;76.99;99150.19;5096091;28;20422;-73
2022/11/20 06:03:54;;;;;;;;;;;;;;;2.83;77.70;99156.06;5095754;28;19931;-73
2022/11/20 06:06:22;;;;;;;;;;;;;;;2.82;77.94;99163.56;5095626;28;19924;-73
2022/11/20 06:08:51;;;;;;;;;;;;;;;2.82;78.10;99166.94;5095526;28;20408;-73
2022/11/20 06:11:20;;;;;;;;;;;;;;;2.88;78.03;99161.19;5095584;28;19928;-73
2022/11/20 06:13:48;;;;;;;;;;;;;;;2.91;78.15;99161.22;5094332;28;19924;-73
2022/11/20 06:16:20;;;;;;;;;;;;;;;2.92;78.30;99162.94;5095805;28;19924;-73
2022/11/20 06:18:48;;;;;;;;;;;;;;;2.91;78.55;99158.72;5095453;28;19931;-73
2022/11/20 06:21:18;;;;;;;;;;;;;;;2.91;78.53;99158.72;5095394;28;19924;-73
2022/11/20 06:23:47;;;;;;;;;;;;;;;2.90;77.52;99162.06;5095314;28;19931;-73
2022/11/20 06:26:16;;;;;;;;;;;;;;;2.93;78.24;99168.00;5095308;28;20349;-73
2022/11/20 06:28:44;;;;;;;;;;;;;;;2.96;78.22;99168.06;5095497;28;20321;-73
2022/11/20 06:31:14;;;;;;;;;;;;;;;2.96;78.80;99164.69;5095025;28;20370;-73
2022/11/20 06:33:45;;;;;;;;;;;;;;;3.05;78.97;99167.41;5095657;28;19967;-73
2022/11/20 06:36:15;;;;;;;;;;;;;;;3.07;78.58;99155.72;5095132;28;19932;-73
2022/11/20 06:38:46;;;;;;;;;;;;;;;3.09;78.70;99171.72;5094155;28;20207;-73
2022/11/20 06:41:16;;;;;;;;;;;;;;;3.12;78.89;99179.34;5094937;28;19977;-73
2022/11/20 06:43:45;;;;;;;;;;;;;;;3.19;78.85;99191.25;5095306;28;20408;-73
2022/11/20 06:46:14;;;;;;;;;;;;;;;3.19;78.80;99197.13;5094333;28;19924;-73
2022/11/20 06:48:43;;;;;;;;;;;;;;;3.24;78.63;99199.72;5094784;28;19930;-73
2022/11/20 06:51:13;;;;;;;;;;;;;;;3.23;78.77;99205.59;5094372;28;19924;-73
2022/11/20 06:53:42;;;;;;;;;;;;;;;3.25;78.39;99186.31;5094668;28;19924;-73
2022/11/20 06:56:10;;;;;;;;;;;;;;;3.25;78.42;99186.31;5094690;28;19924;-73
2022/11/20 06:58:39;;;;;;;;;;;;;;;3.26;78.31;99195.59;5094156;28;19927;-73
2022/11/20 07:01:08;;;;;;;;;;;;;;;3.27;78.05;99184.66;5094179;28;19924;-73
2022/11/20 07:03:38;;;;;;;;;;;;;;;3.28;77.98;99201.50;5093772;28;19946;-72
2022/11/20 07:06:07;;;;;;;;;;;;;;;3.31;78.61;99201.59;5094455;28;20361;-73
2022/11/20 07:08:36;;;;;;;;;;;;;;;3.34;78.09;99197.44;5094522;28;19931;-73
2022/11/20 07:11:07;;;;;;;;;;;;;;;3.36;77.69;99210.06;5094117;28;20015;-73
2022/11/20 07:13:36;;;;;;;;;;;;;;;3.36;77.60;99210.06;5094010;28;20384;-72
2022/11/20 07:16:05;;;;;;;;;;;;;;;3.34;77.50;99216.75;5094676;28;20015;-72
2022/11/20 07:18:34;;;;;;;;;;;;;;;3.34;77.54;99202.47;5094255;28;20011;-73
2022/11/20 07:21:02;;;;;;;;;;;;;;;3.33;77.44;99212.53;5094316;28;20286;-73
2022/11/20 07:23:31;;;;;;;;;;;;;;;3.36;77.13;99215.09;5094584;28;20289;-73
2022/11/20 07:26:03;;;;;;;;;;;;;;;3.38;76.84;99205.94;5094573;28;20001;-73
2022/11/20 07:28:31;;;;;;;;;;;;;;;3.40;76.88;99206.81;5094269;28;19924;-73
2022/11/20 07:30:59;;;;;;;;;;;;;;;3.37;76.89;99211.78;5094442;28;20332;-73
2022/11/20 07:33:28;;;;;;;;;;;;;;;3.39;76.66;99212.66;5092677;28;20015;-73
2022/11/20 07:35:56;;;;;;;;;;;;;;;3.44;76.64;99213.59;5094362;28;19963;-73
2022/11/20 07:38:24;;;;;;;;;;;;;;;3.49;76.59;99214.53;5093822;28;19946;-73
2022/11/20 07:40:54;;;;;;;;;;;;;;;3.53;76.49;99218.81;5094249;28;19947;-72
2022/11/20 07:43:25;;;;;;;;;;;;;;;3.57;76.37;99220.59;5093948;28;19924;-73
2022/11/20 07:45:55;;;;;;;;;;;;;;;3.60;76.81;99223.16;5093985;28;19928;-73
2022/11/20 07:48:24;;;;;;;;;;;;;;;3.60;76.38;99235.78;5093978;28;19973;-73
2022/11/20 07:50:54;;;;;;;;;;;;;;;3.57;76.28;99235.75;5093571;28;19924;-74
2022/11/20 07:53:23;;;;;;;;;;;;;;;3.54;75.97;99223.06;5088951;28;19969;-72
2022/11/20 07:55:52;;;;;;;;;;;;;;;3.48;76.41;99234.69;5094153;28;19924;-72
2022/11/20 07:58:20;;;;;;;;;;;;;;;3.51;75.91;99240.66;5096567;28;19925;-73
2022/11/20 08:00:50;;;;;;;;;;;;;;;3.53;75.86;99243.22;5097606;28;20011;-73
2022/11/20 08:03:19;;;;;;;;;;;;;;;3.56;76.20;99243.25;5098203;28;19928;-72
2022/11/20 08:05:53;;;;;;;;;;;;;;;3.55;76.25;99242.41;5097631;28;19928;-73
2022/11/20 08:08:21;;;;;;;;;;;;;;;3.56;76.21;99230.63;5094826;28;19928;-73
2022/11/20 08:10:50;;;;;;;;;;;;;;;3.53;76.10;99226.38;5097884;28;20033;-73
2022/11/20 08:15:59;;;;;;;;;;;;;;;3.50;75.96;99223.81;5097736;28;19924;-73
2022/11/20 08:18:27;;;;;;;;;;;;;;;3.55;76.35;99232.31;5097752;28;19924;-72
2022/11/20 08:21:03;;;;;;;;;;;;;;;3.56;76.36;99243.25;5097668;28;19924;-72
2022/11/20 08:23:31;;;;;;;;;;;;;;;3.57;75.61;99250.00;5098092;28;19935;-72
2022/11/20 08:25:59;;;;;;;;;;;;;;;3.60;75.52;99250.91;5097939;28;19924;-72
2022/11/20 08:28:27;;;;;;;;;;;;;;;3.63;75.49;99240.88;5097520;28;19925;-72
2022/11/20 08:31:01;;;;;;;;;;;;;;;3.64;75.77;99235.03;5097487;28;19974;-72
2022/11/20 08:33:29;;;;;;;;;;;;;;;3.69;75.39;99245.22;5097427;28;19932;-72
2022/11/20 08:36:00;;;;;;;;;;;;;;;3.70;75.53;99242.69;5097271;28;19924;-72
2022/11/20 08:38:28;;;;;;;;;;;;;;;3.73;75.19;99247.81;5097143;28;20270;-72
2022/11/20 08:43:35;;;;;;;;;;;;;;;3.84;75.19;99240.47;5097217;28;19924;-72
2022/11/20 08:46:05;;;;;;;;;;;;;;;3.89;75.34;99244.75;5097360;28;20380;-72
2022/11/20 08:48:33;;;;;;;;;;;;;;;3.85;75.53;99248.06;5097174;28;20382;-72
2022/11/20 08:51:02;;;;;;;;;;;;;;;3.90;75.86;99251.50;5096966;28;19928;-72
2022/11/20 08:53:30;;;;;;;;;;;;;;;3.96;76.14;99253.28;5097008;28;19924;-72
2022/11/20 08:55:58;;;;;;;;;;;;;;;3.96;75.87;99256.66;5095774;28;19924;-72
2022/11/20 08:58:27;;;;;;;;;;;;;;;4.00;75.89;99250.88;5097530;28;20258;-72
2022/11/20 09:00:55;;;;;;;;;;;;;;;4.06;75.90;99258.53;5096751;28;19924;-72
2022/11/20 09:03:26;;;;;;;;;;;;;;;4.08;76.01;99256.03;5096845;28;19977;-72
2022/11/20 09:06:00;;;;;;;;;;;;;;;4.03;76.21;99258.47;5096936;28;20449;-72
2022/11/20 09:08:29;;;;;;;;;;;;;;;4.04;76.29;99260.19;5095802;28;20011;-72
2022/11/20 09:10:58;;;;;;;;;;;;;;;4.05;76.67;99261.88;5096798;28;19924;-72
2022/11/20 09:13:27;;;;;;;;;;;;;;;4.07;76.68;99260.25;5096605;28;20011;-72
2022/11/20 09:15:56;;;;;;;;;;;;;;;4.10;77.14;99258.59;5096862;28;20316;-72
2022/11/20 09:18:26;;;;;;;;;;;;;;;4.12;77.08;99262.00;5096904;28;19924;-73
2022/11/20 09:20:57;;;;;;;;;;;;;;;4.16;77.24;99266.28;5096713;28;19924;-72
2022/11/20 09:23:25;;;;;;;;;;;;;;;4.18;77.41;99262.09;5096809;28;19924;-72
2022/11/20 09:25:55;;;;;;;;;;;;;;;4.21;77.10;99272.25;5096397;28;19931;-73
2022/11/20 09:28:23;;;;;;;;;;;;;;;4.24;77.68;99273.19;5096749;28;19924;-73
2022/11/20 09:30:52;;;;;;;;;;;;;;;4.26;77.79;99275.72;5096270;28;19936;-73
2022/11/20 09:33:20;;;;;;;;;;;;;;;4.26;77.93;99265.63;5096645;28;19989;-73
2022/11/20 09:35:50;;;;;;;;;;;;;;;4.28;77.73;99252.19;5096257;28;19928;-73
2022/11/20 09:38:18;;;;;;;;;;;;;;;4.34;77.58;99254.84;5096055;28;20352;-73
2022/11/20 09:40:48;;;;;;;;;;;;;;;4.38;77.78;99255.72;5096066;28;19924;-73
2022/11/20 09:43:20;;;;;;;;;;;;;;;4.43;77.81;99249.06;5096135;28;19924;-73
2022/11/20 09:45:55;;;;;;;;;;;;;;;4.49;77.79;99254.22;5096442;28;20284;-72
2022/11/20 09:48:33;;;;;;;;;;;;;;;4.46;77.83;99249.13;5096378;28;19993;-72
2022/11/20 09:51:06;;;;;;;;;;;;;;;4.53;77.82;99245.88;5095964;28;19948;-73
2022/11/20 09:53:41;;;;;;;;;;;;;;;4.64;77.44;99244.34;5096191;28;20288;-72
2022/11/20 09:56:11;;;;;;;;;;;;;;;4.78;77.54;99247.94;5096235;28;19924;-72
2022/11/20 09:58:42;;;;;;;;;;;;;;;4.78;77.63;99252.16;5096276;28;19924;-72
2022/11/20 10:01:13;;;;;;;;;;;;;;;4.79;77.07;99249.66;5095943;28;19977;-72
2022/11/20 10:03:53;;;;;;;;;;;;;;;4.63;77.38;99232.56;5095755;28;19924;-72
2022/11/20 10:06:27;;;;;;;;;;;;;;;4.79;77.46;99251.34;5095645;28;20027;-72
2022/11/20 10:08:59;;;;;;;;;;;;;;;4.79;77.14;99257.25;5095912;28;20281;-72
2022/11/20 10:11:34;;;;;;;;;;;;;;;4.74;77.04;99253.78;5094483;28;19931;-72
2022/11/20 10:14:10;;;;;;;;;;;;;;;4.69;76.85;99253.72;5095370;28;19924;-72
2022/11/20 10:16:45;;;;;;;;;;;;;;;4.71;76.94;99252.06;5091335;28;20024;-73
2022/11/20 10:19:27;;;;;;;;;;;;;;;4.74;76.83;99256.31;5095664;28;20358;-72
2022/11/20 10:22:03;;;;;;;;;;;;;;;4.68;76.51;99261.25;5095201;28;20168;-72
2022/11/20 10:24:40;;;;;;;;;;;;;;;4.69;76.67;99257.91;5094314;28;19955;-72
2022/11/20 10:27:13;;;;;;;;;;;;;;;4.71;76.41;99256.25;5095474;28;19974;-72
2022/11/20 10:29:45;;;;;;;;;;;;;;;4.73;76.68;99262.19;5095157;28;19924;-73
2022/11/20 10:32:17;;;;;;;;;;;;;;;4.69;76.68;99257.91;5095184;28;19935;-73
2022/11/20 10:34:49;;;;;;;;;;;;;;;4.65;76.51;99258.72;5095035;28;19924;-72
2022/11/20 10:37:22;;;;;;;;;;;;;;;4.70;76.75;99255.41;5095048;28;19924;-73
2022/11/20 10:39:54;;;;;;;;;;;;;;;4.70;76.83;99249.53;5094994;28;19924;-72
2022/11/20 10:42:27;;;;;;;;;;;;;;;4.64;77.00;99249.41;5093855;28;19924;-73
2022/11/20 10:45:02;;;;;;;;;;;;;;;4.62;77.14;99251.94;5095256;28;19977;-72
2022/11/20 10:47:34;;;;;;;;;;;;;;;4.64;76.94;99249.41;5094864;28;19935;-72
2022/11/20 10:50:05;;;;;;;;;;;;;;;4.62;77.38;99241.81;5093708;28;19931;-72
2022/11/20 10:52:40;;;;;;;;;;;;;;;4.60;77.41;99247.69;5094770;28;19928;-73
2022/11/20 10:55:13;;;;;;;;;;;;;;;4.56;76.93;99240.84;5095216;28;19969;-72
2022/11/20 10:57:50;;;;;;;;;;;;;;;4.57;76.98;99232.47;5094747;28;19924;-73
2022/11/20 11:00:18;;;;;;;;;;;;;;;4.55;77.04;99234.13;5094486;28;19924;-73
2022/11/20 11:02:48;;;;;;;;;;;;;;;4.51;76.83;99230.66;5094687;28;19924;-73
2022/11/20 11:05:23;;;;;;;;;;;;;;;4.59;76.51;99225.75;5094458;28;19974;-73
2022/11/20 11:07:55;;;;;;;;;;;;;;;4.67;76.23;99212.41;5094659;28;19966;-73
2022/11/20 11:10:25;;;;;;;;;;;;;;;4.69;76.14;99213.28;5094488;28;19932;-73
2022/11/20 11:12:53;;;;;;;;;;;;;;;4.71;76.07;99208.25;5094504;28;19924;-72
2022/11/20 11:15:37;;;;;;;;;;;;;;;4.73;75.32;99214.16;5094349;28;20011;-72
2022/11/20 11:18:05;;;;;;;;;;;;;;;4.74;75.37;99213.34;5094400;28;19928;-73
2022/11/20 11:20:33;;;;;;;;;;;;;;;4.78;75.20;99207.50;5094583;28;19935;-72
2022/11/20 11:23:04;;;;;;;;;;;;;;;4.91;75.10;99204.34;5094216;28;19924;-72
2022/11/20 11:25:34;;;;;;;;;;;;;;;5.00;75.04;99212.03;5094639;28;19930;-73
2022/11/20 11:28:04;;;;;;;;;;;;;;;5.06;74.56;99213.81;5094578;28;20027;-73
2022/11/20 11:30:42;;;;;;;;;;;;;;;5.07;74.75;99201.19;5094099;28;19924;-73
2022/11/20 11:33:12;;;;;;;;;;;;;;;5.02;73.97;99202.78;5094010;28;19967;-72
2022/11/20 11:35:45;;;;;;;;;;;;;;;4.99;74.00;99207.78;5094091;28;19973;-72
2022/11/20 11:38:22;;;;;;;;;;;;;;;5.05;74.29;99217.16;5093858;28;19924;-72
2022/11/20 11:40:50;;;;;;;;;;;;;;;5.08;74.31;99220.59;5094406;28;19928;-73
2022/11/20 11:46:15;;;;;;;;;;;;;;;5.11;74.25;99212.19;5092950;28;19931;-73
2022/11/20 11:48:43;;;;;;;;;;;;;;;5.08;74.58;99202.88;5094378;28;19931;-73
2022/11/20 11:51:21;;;;;;;;;;;;;;;5.09;74.79;99194.44;5093944;28;19975;-73
2022/11/20 11:53:51;;;;;;;;;;;;;;;5.12;74.65;99201.22;5093916;28;19931;-73
2022/11/20 11:56:20;;;;;;;;;;;;;;;5.16;74.75;99181.06;5093320;28;19928;-73
2022/11/20 11:58:51;;;;;;;;;;;;;;;5.21;74.57;99189.56;5093877;28;19959;-72
2022/11/20 12:01:26;;;;;;;;;;;;;;;5.24;74.71;99186.22;5093732;28;19928;-74
2022/11/20 12:04:00;;;;;;;;;;;;;;;5.24;74.89;99184.53;5094282;28;19947;-73
2022/11/20 12:06:31;;;;;;;;;;;;;;;5.30;74.62;99194.72;5092895;28;20431;-73
2022/11/20 12:09:03;;;;;;;;;;;;;;;5.49;74.50;99187.38;5093786;28;19924;-73
2022/11/20 12:11:34;;;;;;;;;;;;;;;5.73;73.99;99190.16;5093775;28;19924;-73
2022/11/20 12:14:05;;;;;;;;;;;;;;;5.89;73.69;99181.91;5093775;28;20014;-73
2022/11/20 12:16:36;;;;;;;;;;;;;;;6.21;73.71;99175.47;5094206;28;20267;-73
2022/11/20 12:19:08;;;;;;;;;;;;;;;6.67;71.94;99171.59;5093581;28;20008;-73
2022/11/20 12:21:41;;;;;;;;;;;;;;;6.80;71.55;99188.56;5093591;28;19931;-73
2022/11/20 12:24:25;;;;;;;;;;;;;;;6.66;71.28;99196.09;5092492;28;19950;-73
2022/11/20 12:26:58;;;;;;;;;;;;;;;6.55;70.92;99197.69;5093607;28;19956;-73
2022/11/20 12:29:37;;;;;;;;;;;;;;;6.26;70.94;99195.78;5093642;28;19924;-73
2022/11/20 12:32:25;;;;;;;;;;;;;;;6.04;70.90;99190.53;5093531;28;19932;-73
2022/11/20 12:34:59;;;;;;;;;;;;;;;5.86;71.34;99192.84;5093368;28;19924;-73
2022/11/20 12:37:34;;;;;;;;;;;;;;;5.82;71.63;99195.31;5093296;28;19930;-73
2022/11/20 12:40:16;;;;;;;;;;;;;;;5.86;71.51;99189.47;5092199;28;20390;-73
2022/11/20 12:45:50;;;;;;;;;;;;;;;6.14;72.54;99168.66;5097192;28;19959;-73
2022/11/20 12:48:27;;;;;;;;;;;;;;;6.35;72.22;99158.69;5096986;28;19924;-73
2022/11/20 12:51:06;;;;;;;;;;;;;;;6.44;71.53;99156.22;5097262;28;19924;-73
2022/11/20 12:53:46;;;;;;;;;;;;;;;6.43;71.52;99151.16;5097169;28;19924;-73
2022/11/20 12:56:20;;;;;;;;;;;;;;;6.37;71.11;99151.94;5097166;28;19930;-73
2022/11/20 12:58:53;;;;;;;;;;;;;;;6.18;70.91;99155.16;5097182;28;20427;-73
2022/11/20 13:04:10;;;;;;;;;;;;;;;6.07;70.53;99162.66;5095611;28;19924;-73
2022/11/20 13:06:41;;;;;;;;;;;;;;;5.94;71.22;99162.56;5097096;28;20027;-73
2022/11/20 13:09:12;;;;;;;;;;;;;;;5.84;71.14;99163.25;5096905;28;19932;-73
2022/11/20 13:11:46;;;;;;;;;;;;;;;5.81;71.34;99163.22;5097059;28;20374;-73
2022/11/20 13:14:21;;;;;;;;;;;;;;;5.80;71.47;99162.41;5096718;28;19928;-73
2022/11/20 13:16:53;;;;;;;;;;;;;;;5.82;71.87;99159.88;5095788;28;20463;-73
2022/11/20 13:19:23;;;;;;;;;;;;;;;5.74;71.69;99162.31;5095381;28;19924;-73
2022/11/20 13:21:52;;;;;;;;;;;;;;;5.67;72.12;99157.19;5095839;28;19930;-73
2022/11/20 13:24:26;;;;;;;;;;;;;;;5.60;72.28;99163.88;5096808;28;19924;-73
2022/11/20 13:27:03;;;;;;;;;;;;;;;5.59;72.43;99151.22;5096614;28;19928;-73
2022/11/20 13:29:33;;;;;;;;;;;;;;;5.62;72.06;99156.28;5096352;28;19981;-73